createdAt,value
2018-10-21T00:00:19.771Z,60.60
2018-10-21T00:02:49.092Z,60.80
2018-10-21T00:05:17.647Z,60.90
2018-10-21T00:07:46.377Z,60.60
2018-10-21T00:10:15.381Z,60.60
2018-10-21T00:12:43.798Z,60.70
2018-10-21T00:15:13.301Z,60.50
2018-10-21T00:17:41.750Z,60.60
2018-10-21T00:20:10.592Z,60.70
2018-10-21T00:22:43.289Z,60.60
2018-10-21T00:25:14.821Z,60.60
2018-10-21T00:27:43.294Z,60.40
2018-10-21T00:30:11.801Z,60.60
2018-10-21T00:32:45.539Z,60.50
2018-10-21T00:35:14.280Z,60.40
2018-10-21T00:37:44.045Z,60.40
2018-10-21T00:40:12.502Z,60.30
2018-10-21T00:42:41.168Z,60.30
2018-10-21T00:45:13.872Z,60.30
2018-10-21T00:47:43.132Z,60.40
2018-10-21T00:52:40.207Z,60.30
2018-10-21T00:55:10.085Z,60.20
2018-10-21T00:57:38.572Z,60.30
2018-10-21T01:00:10.852Z,60.20
2018-10-21T01:02:42.092Z,60.20
2018-10-21T01:07:39.809Z,60.10
2018-10-21T01:10:11.203Z,60.20
2018-10-21T01:12:47.849Z,60.00
2018-10-21T01:15:16.509Z,60.10
2018-10-21T01:17:46.868Z,60.00
2018-10-21T01:20:15.303Z,60.00
2018-10-21T01:22:43.790Z,60.20
2018-10-21T01:25:14.419Z,60.00
2018-10-21T01:27:44.798Z,60.10
2018-10-21T01:30:13.419Z,59.90
2018-10-21T01:32:41.818Z,59.90
2018-10-21T01:37:39.399Z,60.00
2018-10-21T01:40:43.080Z,60.00
2018-10-21T01:43:13.149Z,59.80
2018-10-21T01:45:42.197Z,59.80
2018-10-21T01:48:12.628Z,59.90
2018-10-21T01:50:42.185Z,59.80
2018-10-21T01:53:11.528Z,59.80
2018-10-21T01:55:40.591Z,59.70
2018-10-21T01:58:08.964Z,59.90
2018-10-21T02:00:38.221Z,59.80
2018-10-21T02:03:07.736Z,59.70
2018-10-21T02:05:36.704Z,59.90
2018-10-21T02:08:05.724Z,59.70
2018-10-21T02:10:37.331Z,59.70
2018-10-21T02:13:07.676Z,59.60
2018-10-21T02:15:36.180Z,59.80
2018-10-21T02:20:33.529Z,59.70
2018-10-21T02:23:07.376Z,59.50
2018-10-21T02:25:37.375Z,59.60
2018-10-21T02:28:05.764Z,59.50
2018-10-21T02:30:40.137Z,59.50
2018-10-21T02:33:08.675Z,59.70
2018-10-21T02:35:37.000Z,59.40
2018-10-21T02:38:05.797Z,59.60
2018-10-21T02:41:44.712Z,59.50
2018-10-21T02:44:14.602Z,59.60
2018-10-21T02:46:43.732Z,59.50
2018-10-21T02:49:12.971Z,59.50
2018-10-21T02:51:41.543Z,59.40
2018-10-21T02:54:10.196Z,59.40
2018-10-21T02:56:39.525Z,59.40
2018-10-21T02:59:08.560Z,59.40
2018-10-21T03:01:37.206Z,59.40
2018-10-21T03:04:05.608Z,59.30
2018-10-21T03:06:33.971Z,59.60
2018-10-21T03:09:02.453Z,59.30
2018-10-21T03:11:30.982Z,59.30
2018-10-21T03:13:59.340Z,59.30
2018-10-21T03:16:27.814Z,59.30
2018-10-21T03:19:01.239Z,59.20
2018-10-21T03:21:29.773Z,59.20
2018-10-21T03:23:59.239Z,59.40
2018-10-21T03:26:27.968Z,59.10
2018-10-21T03:28:56.464Z,59.30
2018-10-21T03:31:25.001Z,59.20
2018-10-21T03:33:54.063Z,59.10
2018-10-21T03:36:23.008Z,59.40
2018-10-21T03:38:51.585Z,59.10
2018-10-21T03:41:20.086Z,59.10
2018-10-21T03:46:18.141Z,59.00
2018-10-21T03:48:49.223Z,59.10
2018-10-21T03:51:17.905Z,59.10
2018-10-21T03:53:55.158Z,59.10
2018-10-21T03:56:23.561Z,59.10
2018-10-21T03:58:55.449Z,59.10
2018-10-21T04:01:24.257Z,59.10
2018-10-21T04:03:53.037Z,58.90
2018-10-21T04:06:21.905Z,59.10
2018-10-21T04:08:50.376Z,58.90
2018-10-21T04:11:18.799Z,58.90
2018-10-21T04:13:47.133Z,59.00
2018-10-21T04:16:15.701Z,59.10
2018-10-21T04:18:44.138Z,59.00
2018-10-21T04:21:13.692Z,58.90
2018-10-21T04:26:11.901Z,58.90
2018-10-21T04:28:40.552Z,58.80
2018-10-21T04:31:09.088Z,58.90
2018-10-21T04:33:40.752Z,58.90
2018-10-21T04:36:17.299Z,58.90
2018-10-21T04:40:01.072Z,59.00
2018-10-21T04:42:29.536Z,58.80
2018-10-21T04:45:04.295Z,58.90
2018-10-21T04:47:33.005Z,58.90
2018-10-21T04:50:02.471Z,59.00
2018-10-21T04:52:32.204Z,58.90
2018-10-21T04:55:05.829Z,58.70
2018-10-21T04:57:34.907Z,58.90
2018-10-21T05:00:04.714Z,58.80
2018-10-21T05:02:38.721Z,58.90
2018-10-21T05:05:07.888Z,58.80
2018-10-21T05:07:37.577Z,58.80
2018-10-21T05:10:24.551Z,58.70
2018-10-21T05:12:53.029Z,58.80
2018-10-21T05:15:22.220Z,58.90
2018-10-21T05:17:55.475Z,58.80
2018-10-21T05:20:26.689Z,58.90
2018-10-21T05:22:55.375Z,58.90
2018-10-21T05:25:25.436Z,58.70
2018-10-21T05:27:55.639Z,58.60
2018-10-21T05:30:24.064Z,58.70
2018-10-21T05:32:52.752Z,58.80
2018-10-21T05:35:22.314Z,58.70
2018-10-21T05:37:50.782Z,58.70
2018-10-21T05:40:20.576Z,58.80
2018-10-21T05:42:50.909Z,58.60
2018-10-21T05:45:19.440Z,58.70
2018-10-21T05:47:51.545Z,58.70
2018-10-21T05:50:20.304Z,58.70
2018-10-21T05:52:49.000Z,58.70
2018-10-21T05:55:17.767Z,58.60
2018-10-21T05:57:46.278Z,58.70
2018-10-21T06:00:16.454Z,58.70
2018-10-21T06:02:49.558Z,58.50
2018-10-21T06:05:40.380Z,58.60
2018-10-21T06:08:08.952Z,58.50
2018-10-21T06:10:37.571Z,58.70
2018-10-21T06:13:06.078Z,58.60
2018-10-21T06:15:34.485Z,58.70
2018-10-21T06:18:06.543Z,58.70
2018-10-21T06:20:39.891Z,58.60
2018-10-21T06:23:08.480Z,58.50
2018-10-21T06:25:37.009Z,58.60
2018-10-21T06:28:06.112Z,58.50
2018-10-21T06:30:42.705Z,58.70
2018-10-21T06:33:18.923Z,58.60
2018-10-21T06:35:50.321Z,58.60
2018-10-21T06:38:19.604Z,58.60
2018-10-21T06:40:49.513Z,58.70
2018-10-21T06:43:20.357Z,58.50
2018-10-21T06:45:48.694Z,58.40
2018-10-21T06:48:17.190Z,58.50
2018-10-21T06:50:45.688Z,58.50
2018-10-21T06:53:15.269Z,58.70
2018-10-21T06:55:44.443Z,58.50
2018-10-21T06:58:13.159Z,58.50
2018-10-21T07:00:41.789Z,58.70
2018-10-21T07:03:13.383Z,58.60
2018-10-21T07:06:16.855Z,58.50
2018-10-21T07:08:45.591Z,58.60
2018-10-21T07:11:20.832Z,58.00
2018-10-21T07:13:49.308Z,58.00
2018-10-21T07:16:17.840Z,57.90
2018-10-21T07:18:48.304Z,57.50
2018-10-21T07:23:46.544Z,57.00
2018-10-21T07:26:16.344Z,56.50
2018-10-21T07:28:45.010Z,56.20
2018-10-21T07:31:13.533Z,56.10
2018-10-21T07:33:42.257Z,55.80
2018-10-21T07:36:11.416Z,55.60
2018-10-21T07:38:40.034Z,55.40
2018-10-21T07:41:13.425Z,55.40
2018-10-21T07:43:41.887Z,55.30
2018-10-21T07:46:10.426Z,55.10
2018-10-21T07:53:35.500Z,55.00
2018-10-21T07:56:05.057Z,54.90
2018-10-21T08:03:30.716Z,54.80
2018-10-21T08:06:29.213Z,54.60
2018-10-21T08:09:01.394Z,54.40
2018-10-21T08:11:34.764Z,54.30
2018-10-21T08:14:03.721Z,54.50
2018-10-21T08:16:32.354Z,54.50
2018-10-21T08:19:01.353Z,54.20
2018-10-21T08:21:29.843Z,54.10
2018-10-21T08:23:58.237Z,54.40
2018-10-21T08:26:29.046Z,54.40
2018-10-21T08:28:57.459Z,54.20
2018-10-21T08:31:25.848Z,54.00
2018-10-21T08:33:56.297Z,54.10
2018-10-21T08:36:24.943Z,54.30
2018-10-21T08:38:54.371Z,54.20
2018-10-21T08:41:26.300Z,53.90
2018-10-21T08:43:55.204Z,53.90
2018-10-21T08:46:25.844Z,54.10
2018-10-21T08:48:54.654Z,54.30
2018-10-21T08:51:25.614Z,54.30
2018-10-21T08:53:54.605Z,54.10
2018-10-21T08:56:23.982Z,54.30
2018-10-21T08:58:52.528Z,54.60
2018-10-21T09:01:20.954Z,54.30
2018-10-21T09:03:49.540Z,54.20
2018-10-21T09:06:17.935Z,54.10
2018-10-21T09:08:47.532Z,54.40
2018-10-21T09:11:15.887Z,54.60
2018-10-21T09:13:44.361Z,54.20
2018-10-21T09:16:15.784Z,54.10
2018-10-21T09:18:44.179Z,54.10
2018-10-21T09:21:12.997Z,54.30
2018-10-21T09:23:41.584Z,54.40
2018-10-21T09:26:14.574Z,54.30
2018-10-21T09:28:43.563Z,54.30
2018-10-21T09:31:13.780Z,54.20
2018-10-21T09:33:42.257Z,54.40
2018-10-21T09:36:11.628Z,54.40
2018-10-21T09:38:39.985Z,54.40
2018-10-21T09:41:08.681Z,54.40
2018-10-21T09:43:37.504Z,54.40
2018-10-21T09:48:36.132Z,54.60
2018-10-21T09:51:13.661Z,54.50
2018-10-21T09:53:43.941Z,54.40
2018-10-21T09:56:18.862Z,54.40
2018-10-21T10:01:21.823Z,54.60
2018-10-21T10:03:55.589Z,54.50
2018-10-21T10:06:24.633Z,54.50
2018-10-21T10:08:53.469Z,54.50
2018-10-21T10:11:22.088Z,54.60
2018-10-21T10:13:50.748Z,54.60
2018-10-21T10:16:20.335Z,54.50
2018-10-21T10:18:49.864Z,54.50
2018-10-21T10:21:19.964Z,54.50
2018-10-21T10:23:48.519Z,54.70
2018-10-21T10:26:16.846Z,54.70
2018-10-21T10:28:45.220Z,54.60
2018-10-21T10:31:14.126Z,54.50
2018-10-21T10:33:42.441Z,54.50
2018-10-21T10:36:11.733Z,54.70
2018-10-21T10:38:40.165Z,54.50
2018-10-21T10:41:13.852Z,54.40
2018-10-21T10:43:43.981Z,54.20
2018-10-21T10:46:14.385Z,54.40
2018-10-21T10:48:42.880Z,54.50
2018-10-21T10:51:11.406Z,54.20
2018-10-21T10:53:42.124Z,54.10
2018-10-21T10:56:12.160Z,54.00
2018-10-21T10:58:40.523Z,54.10
2018-10-21T11:01:13.552Z,54.10
2018-10-21T11:03:42.704Z,54.00
2018-10-21T11:06:19.465Z,54.00
2018-10-21T11:08:47.911Z,54.00
2018-10-21T11:11:16.137Z,54.10
2018-10-21T11:13:44.965Z,54.10
2018-10-21T11:16:14.761Z,54.00
2018-10-21T11:18:43.488Z,54.00
2018-10-21T11:21:13.739Z,53.90
2018-10-21T11:23:43.544Z,54.00
2018-10-21T11:26:13.067Z,54.10
2018-10-21T11:31:19.375Z,53.90
2018-10-21T11:33:47.914Z,53.80
2018-10-21T11:36:24.927Z,53.90
2018-10-21T11:38:55.409Z,53.90
2018-10-21T11:41:23.935Z,54.00
2018-10-21T11:43:52.972Z,54.90
2018-10-21T11:46:26.222Z,55.40
2018-10-21T11:48:54.570Z,55.40
2018-10-21T11:51:23.414Z,56.40
2018-10-21T11:53:52.093Z,56.70
2018-10-21T11:56:20.634Z,56.70
2018-10-21T11:58:49.636Z,57.20
2018-10-21T12:01:18.085Z,57.40
2018-10-21T12:03:47.911Z,57.60
2018-10-21T12:06:17.316Z,57.70
2018-10-21T12:08:45.804Z,57.90
2018-10-21T12:11:14.595Z,58.10
2018-10-21T12:13:44.538Z,58.20
2018-10-21T12:16:15.399Z,58.30
2018-10-21T12:18:43.745Z,58.40
2018-10-21T12:21:12.566Z,58.50
2018-10-21T12:23:43.690Z,58.50
2018-10-21T12:26:12.251Z,58.60
2018-10-21T12:28:40.838Z,58.70
2018-10-21T12:31:09.373Z,58.70
2018-10-21T12:33:39.018Z,58.80
2018-10-21T12:36:07.416Z,58.90
2018-10-21T12:38:35.876Z,58.90
2018-10-21T12:41:05.050Z,58.90
2018-10-21T12:43:33.769Z,59.00
2018-10-21T12:46:02.300Z,59.00
2018-10-21T12:48:31.881Z,59.00
2018-10-21T12:51:03.426Z,59.10
2018-10-21T12:53:31.833Z,59.10
2018-10-21T12:56:00.685Z,59.20
2018-10-21T12:58:31.748Z,59.20
2018-10-21T13:01:02.778Z,59.30
2018-10-21T13:03:31.782Z,59.30
2018-10-21T13:06:01.790Z,59.30
2018-10-21T13:08:30.185Z,59.40
2018-10-21T13:11:05.054Z,59.40
2018-10-21T13:13:38.025Z,59.40
2018-10-21T13:16:06.689Z,59.40
2018-10-21T13:18:38.091Z,59.50
2018-10-21T13:21:07.588Z,59.50
2018-10-21T13:23:36.284Z,59.60
2018-10-21T13:26:04.989Z,59.60
2018-10-21T13:28:33.588Z,59.60
2018-10-21T13:33:30.659Z,59.60
2018-10-21T13:36:04.866Z,59.80
2018-10-21T13:38:33.688Z,59.80
2018-10-21T13:41:02.127Z,59.80
2018-10-21T13:43:30.985Z,59.90
2018-10-21T13:45:59.484Z,59.90
2018-10-21T13:48:27.877Z,59.90
2018-10-21T13:50:56.413Z,59.90
2018-10-21T13:53:25.757Z,60.00
2018-10-21T13:55:54.387Z,60.00
2018-10-21T13:58:22.837Z,60.40
2018-10-21T14:00:51.529Z,60.60
2018-10-21T14:03:20.025Z,60.50
2018-10-21T14:05:51.344Z,60.40
2018-10-21T14:08:19.832Z,60.50
2018-10-21T14:10:57.792Z,60.40
2018-10-21T14:13:26.598Z,60.40
2018-10-21T14:15:55.195Z,60.40
2018-10-21T14:18:24.041Z,60.40
2018-10-21T14:20:52.587Z,60.40
2018-10-21T14:23:22.347Z,60.40
2018-10-21T14:25:56.122Z,60.40
2018-10-21T14:28:24.688Z,60.50
2018-10-21T14:30:53.282Z,60.60
2018-10-21T14:33:25.765Z,60.60
2018-10-21T14:36:01.045Z,60.50
2018-10-21T14:38:30.413Z,60.40
2018-10-21T14:40:58.702Z,60.40
2018-10-21T14:43:29.514Z,60.30
2018-10-21T14:46:02.230Z,60.40
2018-10-21T14:48:32.697Z,60.40
2018-10-21T14:51:01.606Z,60.40
2018-10-21T14:53:31.722Z,60.40
2018-10-21T14:56:01.100Z,60.40
2018-10-21T14:58:29.593Z,60.40
2018-10-21T15:00:58.061Z,60.40
2018-10-21T15:05:55.480Z,60.40
2018-10-21T15:08:25.881Z,60.50
2018-10-21T15:10:54.220Z,60.50
2018-10-21T15:13:26.965Z,60.50
2018-10-21T15:18:24.010Z,60.90
2018-10-21T15:20:52.737Z,60.90
2018-10-21T15:25:49.493Z,60.90
2018-10-21T15:28:19.777Z,60.70
2018-10-21T15:30:48.310Z,60.60
2018-10-21T15:33:18.902Z,60.60
2018-10-21T15:35:48.211Z,60.60
2018-10-21T15:38:17.346Z,60.60
2018-10-21T15:40:45.686Z,60.70
2018-10-21T15:43:14.043Z,60.60
2018-10-21T15:45:42.461Z,60.60
2018-10-21T15:48:14.960Z,60.80
2018-10-21T15:50:43.818Z,60.90
2018-10-21T15:53:12.164Z,61.00
2018-10-21T15:55:41.899Z,60.90
2018-10-21T15:58:14.069Z,61.00
2018-10-21T16:00:42.456Z,61.00
2018-10-21T16:03:10.952Z,61.00
2018-10-21T16:05:39.582Z,61.00
2018-10-21T16:08:08.113Z,60.90
2018-10-21T16:10:37.198Z,60.80
2018-10-21T16:13:09.335Z,60.80
2018-10-21T16:15:40.372Z,60.80
2018-10-21T16:18:08.880Z,60.80
2018-10-21T16:20:37.356Z,60.80
2018-10-21T16:23:06.522Z,61.00
2018-10-21T16:30:31.939Z,61.10
2018-10-21T16:33:07.137Z,61.10
2018-10-21T16:35:37.769Z,61.10
2018-10-21T16:38:09.080Z,61.10
2018-10-21T16:40:39.353Z,61.10
2018-10-21T16:43:09.904Z,61.20
2018-10-21T16:45:44.744Z,61.20
2018-10-21T16:48:13.166Z,61.20
2018-10-21T16:50:41.655Z,61.30
2018-10-21T16:53:10.163Z,61.30
2018-10-21T16:55:38.909Z,61.30
2018-10-21T16:58:07.550Z,61.40
2018-10-21T17:03:04.484Z,61.50
2018-10-21T17:05:33.042Z,61.50
2018-10-21T17:08:01.688Z,61.50
2018-10-21T17:10:30.849Z,61.60
2018-10-21T17:13:01.248Z,61.50
2018-10-21T17:15:29.810Z,61.70
2018-10-21T17:17:58.168Z,61.80
2018-10-21T17:20:26.632Z,61.90
2018-10-21T17:22:55.109Z,62.20
2018-10-21T17:25:23.587Z,62.10
2018-10-21T17:28:01.258Z,62.00
2018-10-21T17:30:30.089Z,62.00
2018-10-21T17:32:59.315Z,61.90
2018-10-21T17:35:27.854Z,61.80
2018-10-21T17:37:56.219Z,61.80
2018-10-21T17:40:25.113Z,61.90
2018-10-21T17:42:53.686Z,61.90
2018-10-21T17:45:22.222Z,61.80
2018-10-21T17:47:52.424Z,61.80
2018-10-21T17:50:21.666Z,61.80
2018-10-21T17:52:50.057Z,61.80
2018-10-21T17:55:18.747Z,61.80
2018-10-21T17:57:47.291Z,61.80
2018-10-21T18:00:21.555Z,61.80
2018-10-21T18:02:50.209Z,61.80
2018-10-21T18:05:18.633Z,61.70
2018-10-21T18:07:47.276Z,61.70
2018-10-21T18:10:15.820Z,61.70
2018-10-21T18:12:50.965Z,61.70
2018-10-21T18:15:19.460Z,61.70
2018-10-21T18:17:47.861Z,61.60
2018-10-21T18:20:17.960Z,61.60
2018-10-21T18:22:47.165Z,61.60
2018-10-21T18:25:20.284Z,61.50
2018-10-21T18:27:50.103Z,61.50
2018-10-21T18:30:19.708Z,61.50
2018-10-21T18:32:48.141Z,61.50
2018-10-21T18:35:18.373Z,61.50
2018-10-21T18:37:46.729Z,61.50
2018-10-21T18:40:15.375Z,61.50
2018-10-21T18:42:43.815Z,61.50
2018-10-21T18:45:13.690Z,61.40
2018-10-21T18:47:42.846Z,61.40
2018-10-21T18:52:40.560Z,61.40
2018-10-21T18:55:10.319Z,61.30
2018-10-21T18:57:38.796Z,61.40
2018-10-21T19:02:37.636Z,61.30
2018-10-21T19:05:09.150Z,61.30
2018-10-21T19:07:39.104Z,61.20
2018-10-21T19:10:09.361Z,61.20
2018-10-21T19:12:39.636Z,61.20
2018-10-21T19:15:09.054Z,61.20
2018-10-21T19:20:10.504Z,61.20
2018-10-21T19:22:41.154Z,61.20
2018-10-21T19:25:10.987Z,61.10
2018-10-21T19:27:39.534Z,61.10
2018-10-21T19:30:08.967Z,61.10
2018-10-21T19:32:49.360Z,61.10
2018-10-21T19:35:17.737Z,61.10
2018-10-21T19:37:50.814Z,61.10
2018-10-21T19:40:22.257Z,61.00
2018-10-21T19:42:50.785Z,61.10
2018-10-21T19:45:19.240Z,61.00
2018-10-21T19:47:47.774Z,61.00
2018-10-21T19:50:17.049Z,60.90
2018-10-21T19:52:51.802Z,61.00
2018-10-21T19:55:22.913Z,61.00
2018-10-21T19:57:51.514Z,61.00
2018-10-21T20:00:20.511Z,60.90
2018-10-21T20:02:48.977Z,60.90
2018-10-21T20:05:18.345Z,60.90
2018-10-21T20:07:47.747Z,60.80
2018-10-21T20:10:17.881Z,60.90
2018-10-21T20:12:46.852Z,60.90
2018-10-21T20:15:20.052Z,60.90
2018-10-21T20:17:48.508Z,60.80
2018-10-21T20:20:17.292Z,60.80
2018-10-21T20:22:45.735Z,60.80
2018-10-21T20:25:14.131Z,60.90
2018-10-21T20:27:42.996Z,60.90
2018-10-21T20:30:14.438Z,60.80
2018-10-21T20:32:46.293Z,60.90
2018-10-21T20:35:14.758Z,60.80
2018-10-21T20:37:43.149Z,60.80
2018-10-21T20:40:13.400Z,60.80
2018-10-21T20:42:42.813Z,60.80
2018-10-21T20:45:12.607Z,60.80
2018-10-21T20:47:41.319Z,60.80
2018-10-21T20:50:09.799Z,60.70
2018-10-21T20:52:38.471Z,60.70
2018-10-21T20:55:08.048Z,60.70
2018-10-21T20:57:36.535Z,60.70
2018-10-21T21:00:08.292Z,60.70
2018-10-21T21:02:37.352Z,60.70
2018-10-21T21:05:07.508Z,60.60
2018-10-21T21:07:35.868Z,60.60
2018-10-21T21:10:05.483Z,60.60
2018-10-21T21:12:33.924Z,60.60
2018-10-21T21:15:03.692Z,60.60
2018-10-21T21:17:32.040Z,60.60
2018-10-21T21:20:01.330Z,60.60
2018-10-21T21:22:30.754Z,60.60
2018-10-21T21:25:02.153Z,60.60
2018-10-21T21:27:31.535Z,60.60
2018-10-21T21:29:59.914Z,60.50
2018-10-21T21:32:31.904Z,60.50
2018-10-21T21:35:00.448Z,60.50
2018-10-21T21:39:59.502Z,60.50
2018-10-21T21:42:28.379Z,60.50
2018-10-21T21:44:56.861Z,60.40
2018-10-21T21:47:26.051Z,60.40
2018-10-21T21:49:55.128Z,60.40
2018-10-21T21:52:23.480Z,60.40
2018-10-21T21:54:55.918Z,60.40
2018-10-21T21:57:24.365Z,60.30
2018-10-21T21:59:53.960Z,60.30
2018-10-21T22:02:24.385Z,60.30
2018-10-21T22:04:53.160Z,60.40
2018-10-21T22:07:21.677Z,60.30
2018-10-21T22:09:50.612Z,60.00
2018-10-21T22:12:20.254Z,60.20
2018-10-21T22:14:49.740Z,60.20
2018-10-21T22:17:18.830Z,60.00
2018-10-21T22:19:47.965Z,60.20
2018-10-21T22:22:18.645Z,60.20
2018-10-21T22:24:46.884Z,60.20
2018-10-21T22:27:20.016Z,60.00
2018-10-21T22:29:48.376Z,60.10
2018-10-21T22:34:45.215Z,60.10
2018-10-21T22:37:14.027Z,60.00
2018-10-21T22:39:42.669Z,60.00
2018-10-21T22:42:11.357Z,60.00
2018-10-21T22:44:39.887Z,60.00
2018-10-21T22:47:08.368Z,59.90
2018-10-21T22:49:38.752Z,60.00
2018-10-21T22:52:08.711Z,59.90
2018-10-21T22:54:37.202Z,59.90
2018-10-21T22:57:20.138Z,60.00
2018-10-21T22:59:50.444Z,59.80
2018-10-21T23:02:18.936Z,59.80
2018-10-21T23:04:48.293Z,59.90
2018-10-21T23:09:46.066Z,59.80
2018-10-21T23:12:21.874Z,59.60
2018-10-21T23:14:56.519Z,59.80
2018-10-21T23:17:24.982Z,59.80
2018-10-21T23:19:53.928Z,59.80
2018-10-21T23:22:25.855Z,59.80
2018-10-21T23:24:54.484Z,59.80
2018-10-21T23:27:26.028Z,59.80
2018-10-21T23:29:55.148Z,59.70
2018-10-21T23:32:23.623Z,59.70
2018-10-21T23:34:52.132Z,59.70
2018-10-21T23:39:52.289Z,59.80
2018-10-21T23:42:20.652Z,59.70
2018-10-21T23:44:50.000Z,59.70
2018-10-21T23:47:20.274Z,59.80
2018-10-21T23:49:49.024Z,59.70
2018-10-21T23:54:50.272Z,59.70
2018-10-21T23:57:18.681Z,59.60
